sensor_id;sensor_type;location;lat;lon;timestamp;pressure;altitude;pressure_sealevel;temperature;humidity
65546;BME280;52177;55.968;37.498;2024-03-25T00:00:12;97930.72;;;3.20;85.02
65546;BME280;52177;55.968;37.498;2024-03-25T00:00:43;97947.69;;;3.17;84.50
65546;BME280;52177;55.968;37.498;2024-03-25T00:01:13;97932.41;;;3.13;83.98
65546;BME280;52177;55.968;37.498;2024-03-25T00:01:44;97936.38;;;3.09;83.63
65546;BME280;52177;55.968;37.498;2024-03-25T00:02:14;97946.28;;;3.07;83.64
65546;BME280;52177;55.968;37.498;2024-03-25T00:02:44;97941.53;;;3.02;83.41
65546;BME280;52177;55.968;37.498;2024-03-25T00:03:15;97944.16;;;3.02;83.66
65546;BME280;52177;55.968;37.498;2024-03-25T00:03:45;97945.28;;;3.00;83.42
65546;BME280;52177;55.968;37.498;2024-03-25T00:04:16;97941.34;;;3.04;83.55
65546;BME280;52177;55.968;37.498;2024-03-25T00:04:46;97940.88;;;3.00;83.26
65546;BME280;52177;55.968;37.498;2024-03-25T00:05:16;97942.50;;;3.01;83.63
65546;BME280;52177;55.968;37.498;2024-03-25T00:05:52;97953.53;;;3.05;83.95
65546;BME280;52177;55.968;37.498;2024-03-25T00:06:23;97950.03;;;3.04;83.83
65546;BME280;52177;55.968;37.498;2024-03-25T00:06:53;97949.22;;;3.04;83.43
65546;BME280;52177;55.968;37.498;2024-03-25T00:07:23;97940.81;;;3.08;83.60
65546;BME280;52177;55.968;37.498;2024-03-25T00:07:54;97951.84;;;3.04;82.91
65546;BME280;52177;55.968;37.498;2024-03-25T00:08:24;97945.78;;;3.03;82.78
65546;BME280;52177;55.968;37.498;2024-03-25T00:08:55;97949.41;;;3.02;82.79
65546;BME280;52177;55.968;37.498;2024-03-25T00:09:25;97949.06;;;3.05;83.08
65546;BME280;52177;55.968;37.498;2024-03-25T00:09:55;97961.56;;;3.03;82.84
65546;BME280;52177;55.968;37.498;2024-03-25T00:10:26;97956.16;;;2.96;82.33
65546;BME280;52177;55.968;37.498;2024-03-25T00:10:57;97955.34;;;2.96;82.64
65546;BME280;52177;55.968;37.498;2024-03-25T00:11:27;97960.28;;;2.99;82.74
65546;BME280;52177;55.968;37.498;2024-03-25T00:11:57;97968.34;;;2.98;82.78
65546;BME280;52177;55.968;37.498;2024-03-25T00:12:28;97954.34;;;2.97;82.73
65546;BME280;52177;55.968;37.498;2024-03-25T00:12:59;97967.50;;;2.97;82.32
65546;BME280;52177;55.968;37.498;2024-03-25T00:13:30;97966.69;;;2.96;82.63
65546;BME280;52177;55.968;37.498;2024-03-25T00:14:01;97967.50;;;2.97;82.62
65546;BME280;52177;55.968;37.498;2024-03-25T00:14:31;97961.78;;;2.93;82.31
65546;BME280;52177;55.968;37.498;2024-03-25T00:15:02;97967.72;;;2.95;82.48
65546;BME280;52177;55.968;37.498;2024-03-25T00:15:33;97971.16;;;2.96;82.62
65546;BME280;52177;55.968;37.498;2024-03-25T00:16:04;97966.88;;;2.95;82.12
65546;BME280;52177;55.968;37.498;2024-03-25T00:16:36;97965.22;;;2.94;81.89
65546;BME280;52177;55.968;37.498;2024-03-25T00:17:07;97967.22;;;2.92;81.90
65546;BME280;52177;55.968;37.498;2024-03-25T00:17:41;97970.50;;;2.94;82.25
65546;BME280;52177;55.968;37.498;2024-03-25T00:18:12;97966.69;;;2.96;82.25
65546;BME280;52177;55.968;37.498;2024-03-25T00:18:42;97974.28;;;2.91;81.46
65546;BME280;52177;55.968;37.498;2024-03-25T00:19:13;97982.34;;;2.90;81.39
65546;BME280;52177;55.968;37.498;2024-03-25T00:19:43;97969.69;;;2.93;81.79
65546;BME280;52177;55.968;37.498;2024-03-25T00:20:20;97981.19;;;2.92;81.81
65546;BME280;52177;55.968;37.498;2024-03-25T00:20:50;97966.56;;;2.90;81.68
65546;BME280;52177;55.968;37.498;2024-03-25T00:21:22;97984.97;;;2.90;81.60
65546;BME280;52177;55.968;37.498;2024-03-25T00:21:52;97984.31;;;2.88;81.59
65546;BME280;52177;55.968;37.498;2024-03-25T00:22:23;97996.66;;;2.87;81.75
65546;BME280;52177;55.968;37.498;2024-03-25T00:22:57;97982.69;;;2.87;81.73
65546;BME280;52177;55.968;37.498;2024-03-25T00:23:27;97996.00;;;2.85;81.77
65546;BME280;52177;55.968;37.498;2024-03-25T00:23:58;97988.31;;;2.84;81.66
65546;BME280;52177;55.968;37.498;2024-03-25T00:24:28;97992.72;;;2.83;82.00
65546;BME280;52177;55.968;37.498;2024-03-25T00:24:58;97992.91;;;2.82;82.09
65546;BME280;52177;55.968;37.498;2024-03-25T00:25:29;97998.00;;;2.83;82.21
65546;BME280;52177;55.968;37.498;2024-03-25T00:25:59;97990.44;;;2.80;82.04
65546;BME280;52177;55.968;37.498;2024-03-25T00:26:29;97995.06;;;2.78;82.05
65546;BME280;52177;55.968;37.498;2024-03-25T00:27:00;97989.13;;;2.76;82.00
65546;BME280;52177;55.968;37.498;2024-03-25T00:27:30;97993.59;;;2.75;82.25
65546;BME280;52177;55.968;37.498;2024-03-25T00:28:01;97984.72;;;2.77;82.44
65546;BME280;52177;55.968;37.498;2024-03-25T00:28:31;97987.34;;;2.77;82.44
65546;BME280;52177;55.968;37.498;2024-03-25T00:29:01;97996.41;;;2.74;82.51
65546;BME280;52177;55.968;37.498;2024-03-25T00:29:32;97986.03;;;2.72;82.72
65546;BME280;52177;55.968;37.498;2024-03-25T00:30:02;97997.03;;;2.76;82.86
65546;BME280;52177;55.968;37.498;2024-03-25T00:30:33;97995.56;;;2.73;82.75
65546;BME280;52177;55.968;37.498;2024-03-25T00:31:04;97986.19;;;2.71;82.73
65546;BME280;52177;55.968;37.498;2024-03-25T00:31:34;97982.09;;;2.68;82.79
65546;BME280;52177;55.968;37.498;2024-03-25T00:32:06;97988.16;;;2.69;83.16
65546;BME280;52177;55.968;37.498;2024-03-25T00:32:36;97989.16;;;2.68;83.17
65546;BME280;52177;55.968;37.498;2024-03-25T00:33:06;97991.28;;;2.72;83.20
65546;BME280;52177;55.968;37.498;2024-03-25T00:33:37;98000.00;;;2.73;83.41
65546;BME280;52177;55.968;37.498;2024-03-25T00:34:07;97997.72;;;2.70;83.43
65546;BME280;52177;55.968;37.498;2024-03-25T00:34:38;98001.31;;;2.69;83.43
65546;BME280;52177;55.968;37.498;2024-03-25T00:35:08;98001.66;;;2.66;83.38
65546;BME280;52177;55.968;37.498;2024-03-25T00:35:39;98001.84;;;2.56;83.69
65546;BME280;52177;55.968;37.498;2024-03-25T00:36:09;98004.81;;;2.53;83.99
65546;BME280;52177;55.968;37.498;2024-03-25T00:36:40;98001.19;;;2.54;84.04
65546;BME280;52177;55.968;37.498;2024-03-25T00:37:10;98004.47;;;2.56;84.30
65546;BME280;52177;55.968;37.498;2024-03-25T00:37:41;98007.13;;;2.56;84.25
65546;BME280;52177;55.968;37.498;2024-03-25T00:38:12;98000.53;;;2.52;84.19
65546;BME280;52177;55.968;37.498;2024-03-25T00:38:42;98013.53;;;2.53;84.29
65546;BME280;52177;55.968;37.498;2024-03-25T00:39:13;98012.22;;;2.49;84.42
65546;BME280;52177;55.968;37.498;2024-03-25T00:39:44;98003.66;;;2.47;84.46
65546;BME280;52177;55.968;37.498;2024-03-25T00:40:14;98010.25;;;2.51;84.74
65546;BME280;52177;55.968;37.498;2024-03-25T00:40:45;98009.59;;;2.49;84.72
65546;BME280;52177;55.968;37.498;2024-03-25T00:41:15;98009.25;;;2.52;84.73
65546;BME280;52177;55.968;37.498;2024-03-25T00:41:46;98004.81;;;2.53;84.85
65546;BME280;52177;55.968;37.498;2024-03-25T00:42:16;98012.53;;;2.54;84.71
65546;BME280;52177;55.968;37.498;2024-03-25T00:42:46;98011.22;;;2.50;84.68
65546;BME280;52177;55.968;37.498;2024-03-25T00:43:18;98011.22;;;2.50;84.81
65546;BME280;52177;55.968;37.498;2024-03-25T00:43:48;98012.88;;;2.51;84.85
65546;BME280;52177;55.968;37.498;2024-03-25T00:44:19;98009.25;;;2.52;85.02
65546;BME280;52177;55.968;37.498;2024-03-25T00:44:50;98009.25;;;2.52;84.97
65546;BME280;52177;55.968;37.498;2024-03-25T00:45:20;98014.34;;;2.54;84.91
65546;BME280;52177;55.968;37.498;2024-03-25T00:45:51;98013.53;;;2.53;85.02
65546;BME280;52177;55.968;37.498;2024-03-25T00:46:21;98020.75;;;2.51;84.81
65546;BME280;52177;55.968;37.498;2024-03-25T00:46:52;98021.59;;;2.52;84.86
65546;BME280;52177;55.968;37.498;2024-03-25T00:47:22;98023.56;;;2.50;84.82
65546;BME280;52177;55.968;37.498;2024-03-25T00:47:53;98018.47;;;2.48;84.79
65546;BME280;52177;55.968;37.498;2024-03-25T00:48:23;98026.69;;;2.45;84.88
65546;BME280;52177;55.968;37.498;2024-03-25T00:48:54;98018.97;;;2.44;84.96
65546;BME280;52177;55.968;37.498;2024-03-25T00:49:25;98021.75;;;2.42;85.03
65546;BME280;52177;55.968;37.498;2024-03-25T00:49:55;98019.28;;;2.41;85.00
65546;BME280;52177;55.968;37.498;2024-03-25T00:50:26;98021.09;;;2.40;85.08
65546;BME280;52177;55.968;37.498;2024-03-25T00:50:56;98022.25;;;2.38;85.18
65546;BME280;52177;55.968;37.498;2024-03-25T00:51:27;98032.94;;;2.36;85.29
65546;BME280;52177;55.968;37.498;2024-03-25T00:51:57;98024.56;;;2.32;85.36
65546;BME280;52177;55.968;37.498;2024-03-25T00:52:28;98024.38;;;2.34;85.56
65546;BME280;52177;55.968;37.498;2024-03-25T00:52:58;98029.47;;;2.36;85.76
65546;BME280;52177;55.968;37.498;2024-03-25T00:53:28;98023.88;;;2.39;85.73
65546;BME280;52177;55.968;37.498;2024-03-25T00:53:59;98021.91;;;2.41;85.75
65546;BME280;52177;55.968;37.498;2024-03-25T00:54:29;98028.03;;;2.41;85.60
65546;BME280;52177;55.968;37.498;2024-03-25T00:55:00;98030.00;;;2.39;85.51
65546;BME280;52177;55.968;37.498;2024-03-25T00:55:31;98031.31;;;2.35;85.63
65546;BME280;52177;55.968;37.498;2024-03-25T00:56:01;98025.72;;;2.30;85.68
65546;BME280;52177;55.968;37.498;2024-03-25T00:56:32;98034.75;;;2.27;85.86
65546;BME280;52177;55.968;37.498;2024-03-25T00:57:02;98030.31;;;2.28;85.86
65546;BME280;52177;55.968;37.498;2024-03-25T00:57:33;98038.88;;;2.30;86.10
65546;BME280;52177;55.968;37.498;2024-03-25T00:58:03;98028.66;;;2.27;86.09
65546;BME280;52177;55.968;37.498;2024-03-25T00:58:34;98036.56;;;2.27;86.09
65546;BME280;52177;55.968;37.498;2024-03-25T00:59:04;98033.91;;;2.27;86.08
65546;BME280;52177;55.968;37.498;2024-03-25T00:59:36;98036.25;;;2.30;86.15
65546;BME280;52177;55.968;37.498;2024-03-25T01:00:07;98041.31;;;2.31;86.13
65546;BME280;52177;55.968;37.498;2024-03-25T01:00:38;98042.16;;;2.32;86.21
65546;BME280;52177;55.968;37.498;2024-03-25T01:01:08;98040.50;;;2.31;86.21
65546;BME280;52177;55.968;37.498;2024-03-25T01:01:38;98048.72;;;2.28;86.17
65546;BME280;52177;55.968;37.498;2024-03-25T01:02:09;98042.66;;;2.27;86.22
65546;BME280;52177;55.968;37.498;2024-03-25T01:02:39;98045.44;;;2.26;86.32
65546;BME280;52177;55.968;37.498;2024-03-25T01:03:10;98041.19;;;2.25;86.29
65546;BME280;52177;55.968;37.498;2024-03-25T01:03:40;98036.88;;;2.24;86.21
65546;BME280;52177;55.968;37.498;2024-03-25T01:04:10;98044.13;;;2.22;86.38
65546;BME280;52177;55.968;37.498;2024-03-25T01:04:41;98033.78;;;2.20;86.53
65546;BME280;52177;55.968;37.498;2024-03-25T01:05:11;98046.75;;;2.22;86.80
65546;BME280;52177;55.968;37.498;2024-03-25T01:05:42;98039.66;;;2.22;86.76
65546;BME280;52177;55.968;37.498;2024-03-25T01:06:12;98039.84;;;2.21;86.71
65546;BME280;52177;55.968;37.498;2024-03-25T01:06:42;98043.44;;;2.20;86.64
65546;BME280;52177;55.968;37.498;2024-03-25T01:07:13;98041.81;;;2.19;86.83
65546;BME280;52177;55.968;37.498;2024-03-25T01:07:43;98047.06;;;2.19;86.87
65546;BME280;52177;55.968;37.498;2024-03-25T01:08:14;98044.59;;;2.17;86.81
65546;BME280;52177;55.968;37.498;2024-03-25T01:08:45;98042.16;;;2.16;86.73
65546;BME280;52177;55.968;37.498;2024-03-25T01:09:15;98042.47;;;2.13;86.91
65546;BME280;52177;55.968;37.498;2024-03-25T01:09:46;98043.63;;;2.10;86.86
65546;BME280;52177;55.968;37.498;2024-03-25T01:10:16;98047.06;;;2.10;87.01
65546;BME280;52177;55.968;37.498;2024-03-25T01:10:47;98039.34;;;2.09;86.93
65546;BME280;52177;55.968;37.498;2024-03-25T01:11:17;98051.34;;;2.11;87.02
65546;BME280;52177;55.968;37.498;2024-03-25T01:11:48;98049.53;;;2.12;87.16
65546;BME280;52177;55.968;37.498;2024-03-25T01:12:18;98046.91;;;2.12;87.24
65546;BME280;52177;55.968;37.498;2024-03-25T01:12:49;98048.38;;;2.15;87.13
65546;BME280;52177;55.968;37.498;2024-03-25T01:13:19;98052.66;;;2.16;87.17
65546;BME280;52177;55.968;37.498;2024-03-25T01:13:49;98052.66;;;2.07;86.83
65546;BME280;52177;55.968;37.498;2024-03-25T01:14:20;98053.47;;;2.08;87.11
65546;BME280;52177;55.968;37.498;2024-03-25T01:14:50;98057.56;;;2.10;87.09
65546;BME280;52177;55.968;37.498;2024-03-25T01:15:20;98050.84;;;2.08;87.35
65546;BME280;52177;55.968;37.498;2024-03-25T01:15:52;98053.31;;;2.09;87.34
65546;BME280;52177;55.968;37.498;2024-03-25T01:16:22;98053.66;;;2.06;87.27
65546;BME280;52177;55.968;37.498;2024-03-25T01:16:53;98056.28;;;2.06;87.13
65546;BME280;52177;55.968;37.498;2024-03-25T01:17:23;98059.06;;;2.05;87.18
65546;BME280;52177;55.968;37.498;2024-03-25T01:17:54;98060.22;;;2.02;87.27
65546;BME280;52177;55.968;37.498;2024-03-25T01:18:24;98053.13;;;2.03;87.41
65546;BME280;52177;55.968;37.498;2024-03-25T01:18:54;98056.75;;;2.02;87.45
65546;BME280;52177;55.968;37.498;2024-03-25T01:19:25;98057.72;;;2.01;87.50
65546;BME280;52177;55.968;37.498;2024-03-25T01:19:56;98058.06;;;1.98;87.53
65546;BME280;52177;55.968;37.498;2024-03-25T01:20:26;98049.03;;;2.00;87.47
65546;BME280;52177;55.968;37.498;2024-03-25T01:20:56;98051.66;;;2.00;87.44
65546;BME280;52177;55.968;37.498;2024-03-25T01:21:27;98051.00;;;1.98;87.50
65546;BME280;52177;55.968;37.498;2024-03-25T01:21:57;98051.81;;;1.99;87.39
65546;BME280;52177;55.968;37.498;2024-03-25T01:22:28;98058.06;;;1.98;87.24
65546;BME280;52177;55.968;37.498;2024-03-25T01:22:58;98061.34;;;2.00;87.34
65546;BME280;52177;55.968;37.498;2024-03-25T01:23:28;98061.69;;;1.97;87.17
65546;BME280;52177;55.968;37.498;2024-03-25T01:23:59;98059.22;;;1.95;87.33
65546;BME280;52177;55.968;37.498;2024-03-25T01:24:29;98060.03;;;1.96;87.30
65546;BME280;52177;55.968;37.498;2024-03-25T01:25:00;98053.81;;;1.97;87.40
65546;BME280;52177;55.968;37.498;2024-03-25T01:25:31;98052.97;;;1.96;87.42
65546;BME280;52177;55.968;37.498;2024-03-25T01:26:01;98056.25;;;1.98;87.45
65546;BME280;52177;55.968;37.498;2024-03-25T01:26:31;98063.31;;;1.98;87.54
65546;BME280;52177;55.968;37.498;2024-03-25T01:27:02;98058.06;;;1.98;87.45
65546;BME280;52177;55.968;37.498;2024-03-25T01:27:33;98058.88;;;1.98;87.56
65546;BME280;52177;55.968;37.498;2024-03-25T01:28:03;98057.91;;;1.99;87.61
65546;BME280;52177;55.968;37.498;2024-03-25T01:28:34;98056.91;;;2.00;87.65
65546;BME280;52177;55.968;37.498;2024-03-25T01:29:05;98056.09;;;2.00;87.43
65546;BME280;52177;55.968;37.498;2024-03-25T01:29:35;98058.72;;;2.00;87.38
65546;BME280;52177;55.968;37.498;2024-03-25T01:30:06;98054.44;;;1.99;87.45
65546;BME280;52177;55.968;37.498;2024-03-25T01:30:37;98052.66;;;1.99;87.45
65546;BME280;52177;55.968;37.498;2024-03-25T01:31:09;98058.06;;;1.98;87.39
65546;BME280;52177;55.968;37.498;2024-03-25T01:31:39;98060.69;;;1.98;87.33
65546;BME280;52177;55.968;37.498;2024-03-25T01:32:10;98064.31;;;1.97;87.43
65546;BME280;52177;55.968;37.498;2024-03-25T01:32:40;98065.44;;;1.94;87.42
65546;BME280;52177;55.968;37.498;2024-03-25T01:33:10;98064.47;;;1.95;87.57
65546;BME280;52177;55.968;37.498;2024-03-25T01:33:41;98062.66;;;1.96;87.46
65546;BME280;52177;55.968;37.498;2024-03-25T01:34:12;98053.81;;;1.97;87.37
65546;BME280;52177;55.968;37.498;2024-03-25T01:34:42;98056.44;;;1.97;87.29
65546;BME280;52177;55.968;37.498;2024-03-25T01:35:13;98054.63;;;1.97;87.27
65546;BME280;52177;55.968;37.498;2024-03-25T01:35:44;98056.44;;;1.97;87.30
65546;BME280;52177;55.968;37.498;2024-03-25T01:36:14;98054.63;;;1.97;87.22
65546;BME280;52177;55.968;37.498;2024-03-25T01:36:47;98049.38;;;1.97;87.36
65546;BME280;52177;55.968;37.498;2024-03-25T01:37:18;98058.88;;;1.98;87.21
65546;BME280;52177;55.968;37.498;2024-03-25T01:37:49;98055.28;;;1.99;87.27
65546;BME280;52177;55.968;37.498;2024-03-25T01:38:19;98053.63;;;1.98;87.10
65546;BME280;52177;55.968;37.498;2024-03-25T01:38:49;98053.63;;;1.98;87.05
65546;BME280;52177;55.968;37.498;2024-03-25T01:39:20;98062.50;;;1.97;86.95
65546;BME280;52177;55.968;37.498;2024-03-25T01:39:50;98062.31;;;1.99;87.01
65546;BME280;52177;55.968;37.498;2024-03-25T01:40:21;98059.53;;;2.00;86.95
65546;BME280;52177;55.968;37.498;2024-03-25T01:40:51;98063.66;;;2.03;87.07
65546;BME280;52177;55.968;37.498;2024-03-25T01:41:22;98064.31;;;2.05;86.82
65546;BME280;52177;55.968;37.498;2024-03-25T01:41:53;98067.75;;;2.05;86.80
65546;BME280;52177;55.968;37.498;2024-03-25T01:42:24;98069.41;;;2.06;86.62
65546;BME280;52177;55.968;37.498;2024-03-25T01:43:02;98072.19;;;2.05;86.40
65546;BME280;52177;55.968;37.498;2024-03-25T01:43:32;98072.19;;;2.05;86.39
65546;BME280;52177;55.968;37.498;2024-03-25T01:44:03;98066.94;;;2.05;86.45
65546;BME280;52177;55.968;37.498;2024-03-25T01:44:33;98070.38;;;2.05;86.39
65546;BME280;52177;55.968;37.498;2024-03-25T01:45:05;98073.81;;;2.06;86.37
65546;BME280;52177;55.968;37.498;2024-03-25T01:45:37;98077.97;;;2.08;86.31
65546;BME280;52177;55.968;37.498;2024-03-25T01:46:08;98076.16;;;2.09;86.36
65546;BME280;52177;55.968;37.498;2024-03-25T01:46:40;98069.25;;;2.08;86.27
65546;BME280;52177;55.968;37.498;2024-03-25T01:47:10;98083.03;;;2.10;86.00
65546;BME280;52177;55.968;37.498;2024-03-25T01:47:40;98080.75;;;2.07;85.84
65546;BME280;52177;55.968;37.498;2024-03-25T01:48:12;98081.41;;;2.09;85.94
65546;BME280;52177;55.968;37.498;2024-03-25T01:48:44;98084.03;;;2.09;85.90
65546;BME280;52177;55.968;37.498;2024-03-25T01:49:15;98081.41;;;2.09;85.66
65546;BME280;52177;55.968;37.498;2024-03-25T01:49:45;98079.44;;;2.11;85.76
65546;BME280;52177;55.968;37.498;2024-03-25T01:50:16;98079.25;;;2.13;85.61
65546;BME280;52177;55.968;37.498;2024-03-25T01:50:47;98076.97;;;2.09;85.34
65546;BME280;52177;55.968;37.498;2024-03-25T01:51:18;98078.78;;;2.09;85.28
65546;BME280;52177;55.968;37.498;2024-03-25T01:51:50;98071.72;;;2.09;85.24
65546;BME280;52177;55.968;37.498;2024-03-25T01:52:21;98074.84;;;2.13;85.34
65546;BME280;52177;55.968;37.498;2024-03-25T01:52:53;98076.63;;;2.13;85.08
65546;BME280;52177;55.968;37.498;2024-03-25T01:53:24;98075.00;;;2.11;85.02
65546;BME280;52177;55.968;37.498;2024-03-25T01:53:56;98080.09;;;2.13;85.01
65546;BME280;52177;55.968;37.498;2024-03-25T01:54:26;98075.00;;;2.11;84.90
65546;BME280;52177;55.968;37.498;2024-03-25T01:54:57;98086.19;;;2.14;84.98
65546;BME280;52177;55.968;37.498;2024-03-25T01:55:29;98087.34;;;2.11;84.68
65546;BME280;52177;55.968;37.498;2024-03-25T01:56:01;98089.78;;;2.13;84.68
65546;BME280;52177;55.968;37.498;2024-03-25T01:56:33;98085.53;;;2.11;84.57
65546;BME280;52177;55.968;37.498;2024-03-25T01:57:04;98087.63;;;2.08;84.44
65546;BME280;52177;55.968;37.498;2024-03-25T01:57:34;98091.59;;;2.12;84.67
65546;BME280;52177;55.968;37.498;2024-03-25T01:58:05;98099.63;;;2.10;84.44
65546;BME280;52177;55.968;37.498;2024-03-25T01:58:36;98091.75;;;2.10;84.62
65546;BME280;52177;55.968;37.498;2024-03-25T01:59:08;98095.88;;;2.13;84.64
65546;BME280;52177;55.968;37.498;2024-03-25T01:59:39;98099.47;;;2.12;84.41
65546;BME280;52177;55.968;37.498;2024-03-25T02:00:10;98099.63;;;2.10;84.42
65546;BME280;52177;55.968;37.498;2024-03-25T02:00:41;98094.22;;;2.12;84.48
65546;BME280;52177;55.968;37.498;2024-03-25T02:01:13;98095.03;;;2.13;84.45
65546;BME280;52177;55.968;37.498;2024-03-25T02:01:46;98096.38;;;2.17;84.48
65546;BME280;52177;55.968;37.498;2024-03-25T02:02:16;98094.22;;;2.12;84.19
65546;BME280;52177;55.968;37.498;2024-03-25T02:02:47;98100.78;;;2.08;83.91
65546;BME280;52177;55.968;37.498;2024-03-25T02:03:17;98098.81;;;2.02;83.97
65546;BME280;52177;55.968;37.498;2024-03-25T02:03:48;98100.28;;;2.04;84.08
65546;BME280;52177;55.968;37.498;2024-03-25T02:04:19;98103.06;;;2.03;84.30
65546;BME280;52177;55.968;37.498;2024-03-25T02:04:49;98102.25;;;2.02;84.33
65546;BME280;52177;55.968;37.498;2024-03-25T02:05:20;98097.81;;;2.03;84.25
65546;BME280;52177;55.968;37.498;2024-03-25T02:05:55;98098.16;;;2.00;84.20
65546;BME280;52177;55.968;37.498;2024-03-25T02:06:27;98108.47;;;2.01;84.22
65546;BME280;52177;55.968;37.498;2024-03-25T02:06:58;98104.38;;;1.99;83.99
65546;BME280;52177;55.968;37.498;2024-03-25T02:07:30;98103.41;;;2.00;84.19
65546;BME280;52177;55.968;37.498;2024-03-25T02:08:02;98106.03;;;2.00;84.33
65546;BME280;52177;55.968;37.498;2024-03-25T02:08:33;98108.47;;;2.01;84.33
65546;BME280;52177;55.968;37.498;2024-03-25T02:09:04;98106.69;;;2.02;84.35
65546;BME280;52177;55.968;37.498;2024-03-25T02:09:35;98106.03;;;2.00;84.28
65546;BME280;52177;55.968;37.498;2024-03-25T02:10:07;98103.22;;;2.01;84.43
65546;BME280;52177;55.968;37.498;2024-03-25T02:10:38;98104.88;;;2.02;84.40
65546;BME280;52177;55.968;37.498;2024-03-25T02:11:10;98108.34;;;2.03;84.48
65546;BME280;52177;55.968;37.498;2024-03-25T02:11:41;98106.22;;;2.06;84.56
65546;BME280;52177;55.968;37.498;2024-03-25T02:12:12;98119.84;;;2.10;84.54
65546;BME280;52177;55.968;37.498;2024-03-25T02:12:44;98111.00;;;2.11;84.41
65546;BME280;52177;55.968;37.498;2024-03-25T02:13:15;98124.28;;;2.09;84.29
65546;BME280;52177;55.968;37.498;2024-03-25T02:13:46;98118.03;;;2.10;84.29
65546;BME280;52177;55.968;37.498;2024-03-25T02:14:16;98118.03;;;2.10;84.38
65546;BME280;52177;55.968;37.498;2024-03-25T02:14:47;98116.72;;;2.06;84.09
65546;BME280;52177;55.968;37.498;2024-03-25T02:15:18;98121.13;;;2.06;84.08
65546;BME280;52177;55.968;37.498;2024-03-25T02:15:48;98127.25;;;2.06;84.35
65546;BME280;52177;55.968;37.498;2024-03-25T02:16:21;98120.66;;;2.02;84.28
65546;BME280;52177;55.968;37.498;2024-03-25T02:16:51;98123.44;;;2.01;84.36
65546;BME280;52177;55.968;37.498;2024-03-25T02:17:22;98125.09;;;2.02;84.36
65546;BME280;52177;55.968;37.498;2024-03-25T02:17:52;98122.63;;;2.00;84.54
65546;BME280;52177;55.968;37.498;2024-03-25T02:18:23;98126.06;;;2.01;84.58
65546;BME280;52177;55.968;37.498;2024-03-25T02:18:53;98124.09;;;2.03;84.67
65546;BME280;52177;55.968;37.498;2024-03-25T02:19:24;98124.09;;;2.03;84.57
65546;BME280;52177;55.968;37.498;2024-03-25T02:19:55;98121.63;;;2.01;84.62
65546;BME280;52177;55.968;37.498;2024-03-25T02:20:26;98128.69;;;2.01;84.73
65546;BME280;52177;55.968;37.498;2024-03-25T02:20:56;98128.69;;;2.01;84.68
65546;BME280;52177;55.968;37.498;2024-03-25T02:21:27;98125.91;;;2.02;84.63
65546;BME280;52177;55.968;37.498;2024-03-25T02:21:57;98126.25;;;1.99;84.75
65546;BME280;52177;55.968;37.498;2024-03-25T02:22:28;98128.03;;;1.99;84.77
65546;BME280;52177;55.968;37.498;2024-03-25T02:23:00;98130.34;;;2.02;84.76
65546;BME280;52177;55.968;37.498;2024-03-25T02:23:31;98127.06;;;2.00;84.52
65546;BME280;52177;55.968;37.498;2024-03-25T02:24:08;98135.28;;;1.97;84.60
65546;BME280;52177;55.968;37.498;2024-03-25T02:24:39;98142.50;;;1.95;84.63
65546;BME280;52177;55.968;37.498;2024-03-25T02:25:11;98140.69;;;1.95;84.77
65546;BME280;52177;55.968;37.498;2024-03-25T02:25:42;98137.22;;;1.95;84.83
65546;BME280;52177;55.968;37.498;2024-03-25T02:26:13;98138.72;;;1.97;84.86
65546;BME280;52177;55.968;37.498;2024-03-25T02:26:43;98137.06;;;1.96;84.79
65546;BME280;52177;55.968;37.498;2024-03-25T02:27:13;98139.53;;;1.98;84.80
65546;BME280;52177;55.968;37.498;2024-03-25T02:27:44;98139.69;;;1.96;84.82
65546;BME280;52177;55.968;37.498;2024-03-25T02:28:15;98139.69;;;1.96;84.68
65546;BME280;52177;55.968;37.498;2024-03-25T02:28:45;98141.50;;;1.96;84.76
65546;BME280;52177;55.968;37.498;2024-03-25T02:29:16;98141.50;;;1.96;84.83
65546;BME280;52177;55.968;37.498;2024-03-25T02:29:46;98139.00;;;1.94;84.67
65546;BME280;52177;55.968;37.498;2024-03-25T02:30:16;98142.63;;;1.93;84.71
65546;BME280;52177;55.968;37.498;2024-03-25T02:30:47;98139.00;;;1.94;84.80
65546;BME280;52177;55.968;37.498;2024-03-25T02:31:17;98143.31;;;1.95;84.94
65546;BME280;52177;55.968;37.498;2024-03-25T02:31:48;98146.59;;;1.97;84.99
65546;BME280;52177;55.968;37.498;2024-03-25T02:32:18;98139.69;;;1.96;84.78
65546;BME280;52177;55.968;37.498;2024-03-25T02:32:49;98145.59;;;1.98;85.00
65546;BME280;52177;55.968;37.498;2024-03-25T02:33:19;98146.75;;;1.96;84.72
65546;BME280;52177;55.968;37.498;2024-03-25T02:33:49;98149.38;;;1.96;84.70
65546;BME280;52177;55.968;37.498;2024-03-25T02:34:20;98150.03;;;1.98;84.88
65546;BME280;52177;55.968;37.498;2024-03-25T02:34:51;98151.69;;;1.99;84.75
65546;BME280;52177;55.968;37.498;2024-03-25T02:35:24;98142.31;;;1.96;84.64
65546;BME280;52177;55.968;37.498;2024-03-25T02:35:55;98146.09;;;1.94;84.71
65546;BME280;52177;55.968;37.498;2024-03-25T02:36:25;98149.53;;;1.94;84.67
65546;BME280;52177;55.968;37.498;2024-03-25T02:36:56;98151.34;;;1.94;84.55
65546;BME280;52177;55.968;37.498;2024-03-25T02:37:26;98145.59;;;1.90;84.53
65546;BME280;52177;55.968;37.498;2024-03-25T02:37:58;98147.22;;;1.91;84.73
65546;BME280;52177;55.968;37.498;2024-03-25T02:38:28;98153.81;;;1.95;84.80
65546;BME280;52177;55.968;37.498;2024-03-25T02:38:59;98152.16;;;1.94;84.68
65546;BME280;52177;55.968;37.498;2024-03-25T02:39:31;98152.16;;;1.94;84.63
65546;BME280;52177;55.968;37.498;2024-03-25T02:40:02;98155.63;;;1.95;84.68
65546;BME280;52177;55.968;37.498;2024-03-25T02:40:33;98153.81;;;1.95;84.68
65546;BME280;52177;55.968;37.498;2024-03-25T02:41:04;98151.19;;;1.95;84.61
65546;BME280;52177;55.968;37.498;2024-03-25T02:41:35;98146.91;;;1.94;84.82
65546;BME280;52177;55.968;37.498;2024-03-25T02:42:06;98159.06;;;1.95;84.71
65546;BME280;52177;55.968;37.498;2024-03-25T02:42:38;98159.06;;;1.95;84.53
65546;BME280;52177;55.968;37.498;2024-03-25T02:43:10;98159.88;;;1.96;84.66